Time;durP1;ratioP1;P1;durP2;ratioP2;P2;SDS_P1;SDS_P2;PMS_P1;PMS_P2;Temp;Humidity;BMP_temperature;BMP_pressure;BME280_temperature;BME280_humidity;BME280_pressure;Samples;Min_cycle;Max_cycle;Signal;HPM_P1;HPM_P2
2022/07/06 00:01:06;;;;;;;0.68;0.68;;;16.90;99.90;;;;;;5005617;28;20537;-64
2022/07/06 00:03:33;;;;;;;0.47;0.47;;;16.90;99.90;;;;;;5004350;28;20878;-63
2022/07/06 00:06:02;;;;;;;0.50;0.50;;;16.80;99.90;;;;;;5008371;28;20432;-65
2022/07/06 00:08:29;;;;;;;0.50;0.50;;;16.80;99.90;;;;;;4992821;28;20799;-65
2022/07/06 00:10:56;;;;;;;0.40;0.40;;;16.80;99.90;;;;;;5008492;28;20439;-65
2022/07/06 00:13:23;;;;;;;0.40;0.40;;;16.70;99.90;;;;;;5007291;28;20925;-65
2022/07/06 00:15:50;;;;;;;0.50;0.50;;;16.70;99.90;;;;;;4995650;28;21492;-65
2022/07/06 00:18:19;;;;;;;0.60;0.60;;;16.70;99.90;;;;;;4997729;28;20537;-65
2022/07/06 00:20:47;;;;;;;0.50;0.50;;;16.70;99.90;;;;;;5004150;28;20425;-65
2022/07/06 00:23:16;;;;;;;0.40;0.40;;;16.60;99.90;;;;;;5007525;28;20448;-65
2022/07/06 00:25:43;;;;;;;0.52;0.52;;;16.60;99.90;;;;;;5007640;28;20428;-65
2022/07/06 00:28:10;;;;;;;0.50;0.50;;;16.60;99.90;;;;;;5007744;28;20524;-65
2022/07/06 00:30:37;;;;;;;0.40;0.40;;;16.60;99.90;;;;;;5004308;28;20952;-66
2022/07/06 00:33:04;;;;;;;0.50;0.50;;;16.60;99.90;;;;;;5004447;28;20436;-65
2022/07/06 00:35:34;;;;;;;0.50;0.50;;;16.60;99.90;;;;;;4998021;28;20425;-65
2022/07/06 00:38:00;;;;;;;0.50;0.50;;;16.60;99.90;;;;;;5008738;28;20424;-65
2022/07/06 00:40:29;;;;;;;0.70;0.70;;;16.60;99.90;;;;;;5006208;28;20511;-65
2022/07/06 00:42:56;;;;;;;0.60;0.60;;;16.50;99.90;;;;;;4994127;28;20444;-65
2022/07/06 00:45:23;;;;;;;0.60;0.60;;;16.50;99.90;;;;;;5002905;28;20435;-65
2022/07/06 00:47:50;;;;;;;0.50;0.50;;;16.40;99.90;;;;;;5007408;28;20511;-64
2022/07/06 00:50:20;;;;;;;0.50;0.50;;;16.40;99.90;;;;;;5006056;28;20768;-65
2022/07/06 00:52:59;;;;;;;0.40;0.40;;;16.30;99.90;;;;;;5005404;28;20438;-65
2022/07/06 00:55:28;;;;;;;0.40;0.40;;;16.30;99.90;;;;;;5007796;28;20442;-64
2022/07/06 00:57:55;;;;;;;0.50;0.50;;;16.30;99.90;;;;;;5004169;28;20432;-65
2022/07/06 01:00:26;;;;;;;0.45;0.45;;;16.20;99.90;;;;;;5003751;28;20432;-66
2022/07/06 01:02:53;;;;;;;0.40;0.40;;;16.20;99.90;;;;;;4979771;28;20438;-65
2022/07/06 01:05:21;;;;;;;0.40;0.40;;;16.20;99.90;;;;;;4999680;28;20933;-65
2022/07/06 01:07:51;;;;;;;0.45;0.45;;;16.10;99.90;;;;;;5007771;28;20507;-65
2022/07/06 01:10:22;;;;;;;0.50;0.50;;;16.10;99.90;;;;;;5003475;28;20429;-66
2022/07/06 01:12:49;;;;;;;0.50;0.50;;;16.00;99.90;;;;;;5007575;28;20512;-66
2022/07/06 01:15:21;;;;;;;0.47;0.47;;;16.00;99.90;;;;;;5007359;28;20428;-65
2022/07/06 01:17:48;;;;;;;0.55;0.55;;;15.90;99.90;;;;;;5010314;28;20436;-65
2022/07/06 01:20:16;;;;;;;0.55;0.55;;;16.00;99.90;;;;;;5018032;28;20443;-65
2022/07/06 01:22:45;;;;;;;0.63;0.43;;;15.90;99.90;;;;;;5024550;28;21114;-65
2022/07/06 01:25:16;;;;;;;0.50;0.50;;;15.90;99.90;;;;;;5010518;28;20429;-65
2022/07/06 01:27:43;;;;;;;0.40;0.40;;;15.80;99.90;;;;;;5011382;28;20467;-65
2022/07/06 01:30:12;;;;;;;0.30;0.30;;;15.90;99.90;;;;;;5011858;28;20523;-65
2022/07/06 01:32:42;;;;;;;0.32;0.32;;;15.80;99.90;;;;;;5010770;28;20452;-65
2022/07/06 01:35:13;;;;;;;0.40;0.40;;;15.80;99.90;;;;;;5010123;28;20520;-65
2022/07/06 01:37:41;;;;;;;0.60;0.60;;;15.60;99.90;;;;;;5009149;28;20436;-66
2022/07/06 01:40:10;;;;;;;2.35;0.50;;;15.60;99.90;;;;;;5009547;28;20519;-65
2022/07/06 01:42:38;;;;;;;0.40;0.40;;;15.60;99.90;;;;;;5010864;28;20431;-66
2022/07/06 01:45:06;;;;;;;0.40;0.40;;;15.50;99.90;;;;;;5006813;28;20552;-66
2022/07/06 01:47:33;;;;;;;0.40;0.40;;;15.50;99.90;;;;;;5011070;28;20508;-66
2022/07/06 01:50:02;;;;;;;0.43;0.43;;;15.40;99.90;;;;;;5005115;28;20481;-65
2022/07/06 01:52:29;;;;;;;0.30;0.30;;;15.40;99.90;;;;;;5008317;28;20471;-66
2022/07/06 01:54:57;;;;;;;0.50;0.50;;;15.40;99.90;;;;;;5009559;28;20437;-65
2022/07/06 01:57:24;;;;;;;0.50;0.50;;;15.30;99.90;;;;;;5008599;28;20500;-66
2022/07/06 01:59:51;;;;;;;0.40;0.40;;;15.30;99.90;;;;;;5010809;28;20482;-65
2022/07/06 02:02:18;;;;;;;0.40;0.40;;;15.30;99.90;;;;;;5008786;28;20512;-65
2022/07/06 02:04:45;;;;;;;0.30;0.30;;;15.30;99.90;;;;;;5007212;28;20425;-65
2022/07/06 02:07:12;;;;;;;0.40;0.40;;;15.20;99.90;;;;;;5005695;28;20831;-65
2022/07/06 02:09:38;;;;;;;0.40;0.40;;;15.20;99.90;;;;;;5009399;28;21094;-65
2022/07/06 02:12:05;;;;;;;0.38;0.38;;;15.20;99.90;;;;;;5008620;28;20438;-64
2022/07/06 02:14:34;;;;;;;0.40;0.40;;;15.20;99.90;;;;;;5008003;28;20490;-65
2022/07/06 02:17:01;;;;;;;0.47;0.43;;;15.10;99.90;;;;;;5010063;28;20437;-65
2022/07/06 02:19:28;;;;;;;0.40;0.40;;;15.10;99.90;;;;;;5009033;28;20429;-64
2022/07/06 02:21:54;;;;;;;0.50;0.50;;;15.10;99.90;;;;;;5001220;28;20433;-65
2022/07/06 02:24:21;;;;;;;0.40;0.40;;;15.10;99.90;;;;;;5008916;28;20495;-66
2022/07/06 02:26:51;;;;;;;1.10;0.30;;;15.00;99.90;;;;;;5006831;28;20915;-66
2022/07/06 02:29:31;;;;;;;0.55;0.55;;;15.00;99.90;;;;;;5000908;28;20532;-66
2022/07/06 02:31:58;;;;;;;0.50;0.50;;;14.90;99.90;;;;;;5007784;28;20847;-66
2022/07/06 02:34:25;;;;;;;0.30;0.30;;;14.80;99.90;;;;;;5008137;28;20507;-65
2022/07/06 02:36:52;;;;;;;0.30;0.30;;;14.70;99.90;;;;;;5009657;28;20439;-66
2022/07/06 02:39:19;;;;;;;0.20;0.20;;;14.70;99.90;;;;;;5009809;28;20478;-65
2022/07/06 02:41:45;;;;;;;0.70;0.40;;;14.60;99.90;;;;;;5001508;28;20434;-65
2022/07/06 02:44:12;;;;;;;0.40;0.40;;;14.60;99.90;;;;;;5001280;28;20450;-65
2022/07/06 02:46:39;;;;;;;1.42;0.43;;;14.50;99.90;;;;;;5002105;28;20521;-66
2022/07/06 02:49:11;;;;;;;1.10;0.50;;;14.50;99.90;;;;;;5003957;28;20433;-65
2022/07/06 02:51:38;;;;;;;0.35;0.35;;;14.40;99.90;;;;;;5009075;28;20455;-64
2022/07/06 02:54:05;;;;;;;0.40;0.40;;;14.40;99.90;;;;;;5022665;28;21007;-65
2022/07/06 02:56:32;;;;;;;0.30;0.30;;;14.30;99.90;;;;;;5009029;28;20428;-66
2022/07/06 02:58:58;;;;;;;0.50;0.50;;;14.20;99.90;;;;;;5009100;28;20440;-65
2022/07/06 03:01:27;;;;;;;0.38;0.38;;;14.10;99.90;;;;;;5007242;28;20441;-65
2022/07/06 03:03:54;;;;;;;0.37;0.37;;;14.00;99.90;;;;;;5014123;28;20507;-65
2022/07/06 03:06:24;;;;;;;0.40;0.40;;;13.90;99.90;;;;;;5007044;28;20519;-66
2022/07/06 03:08:51;;;;;;;0.40;0.40;;;13.80;99.90;;;;;;5006079;28;20969;-65
2022/07/06 03:11:17;;;;;;;0.40;0.40;;;13.80;99.90;;;;;;5008209;28;20619;-65
2022/07/06 03:13:44;;;;;;;0.30;0.30;;;13.70;99.90;;;;;;5001997;28;20536;-66
2022/07/06 03:16:11;;;;;;;0.33;0.33;;;13.70;99.90;;;;;;5006387;28;20565;-66
2022/07/06 03:18:38;;;;;;;0.40;0.40;;;13.70;99.90;;;;;;5006746;28;20498;-66
2022/07/06 03:21:05;;;;;;;0.30;0.30;;;13.70;99.90;;;;;;5008714;28;20962;-65
2022/07/06 03:23:31;;;;;;;0.50;0.40;;;13.70;99.90;;;;;;5008781;28;20436;-65
2022/07/06 03:25:58;;;;;;;0.35;0.35;;;13.80;99.90;;;;;;5022051;28;20432;-66
2022/07/06 03:28:25;;;;;;;0.35;0.35;;;13.80;99.90;;;;;;5007443;28;20429;-66
2022/07/06 03:30:52;;;;;;;0.40;0.40;;;13.80;99.90;;;;;;5008134;28;20429;-66
2022/07/06 03:33:19;;;;;;;0.37;0.37;;;13.80;99.90;;;;;;4997217;28;20443;-66
2022/07/06 03:35:45;;;;;;;0.50;0.50;;;13.80;99.90;;;;;;5008405;28;20435;-66
2022/07/06 03:38:13;;;;;;;0.90;0.40;;;13.80;99.90;;;;;;5004882;28;20443;-67
2022/07/06 03:40:39;;;;;;;0.40;0.40;;;13.70;99.90;;;;;;5017206;28;20423;-66
2022/07/06 03:43:06;;;;;;;0.40;0.40;;;13.70;99.90;;;;;;5009404;28;20428;-66
2022/07/06 03:45:33;;;;;;;0.40;0.40;;;13.70;99.90;;;;;;5006471;28;20519;-66
2022/07/06 03:48:00;;;;;;;0.30;0.30;;;13.70;99.90;;;;;;5005258;28;20475;-66
2022/07/06 03:50:27;;;;;;;0.30;0.30;;;13.70;99.90;;;;;;4996625;28;20524;-66
2022/07/06 03:52:57;;;;;;;0.40;0.40;;;13.70;99.90;;;;;;5000013;28;20653;-66
2022/07/06 03:55:23;;;;;;;0.30;0.30;;;13.70;99.90;;;;;;5020427;28;20434;-66
2022/07/06 03:57:50;;;;;;;0.50;0.50;;;13.70;99.90;;;;;;5004576;28;20454;-66
2022/07/06 04:00:17;;;;;;;0.43;0.43;;;13.80;99.90;;;;;;5016516;28;20433;-66
2022/07/06 04:02:44;;;;;;;0.40;0.40;;;13.80;99.90;;;;;;5005680;28;20436;-66
2022/07/06 04:05:11;;;;;;;0.30;0.30;;;13.80;99.90;;;;;;5015880;28;21022;-66
2022/07/06 04:07:37;;;;;;;0.60;0.60;;;13.90;99.90;;;;;;5012976;28;20978;-66
2022/07/06 04:10:05;;;;;;;0.30;0.30;;;13.90;99.90;;;;;;5008856;28;20443;-66
2022/07/06 04:12:32;;;;;;;0.40;0.40;;;13.90;99.90;;;;;;5008998;28;20435;-66
2022/07/06 04:14:59;;;;;;;0.60;0.60;;;14.00;99.90;;;;;;5009116;28;20421;-66
2022/07/06 04:20:19;;;;;;;0.30;0.30;;;14.00;99.90;;;;;;5009541;28;20946;-65
2022/07/06 04:22:52;;;;;;;1.50;0.60;;;14.10;99.90;;;;;;5016475;28;20435;-66
2022/07/06 04:25:19;;;;;;;0.50;0.50;;;14.20;99.90;;;;;;4999313;28;20433;-66
2022/07/06 04:27:48;;;;;;;0.47;0.47;;;14.20;99.90;;;;;;5009611;28;21098;-65
2022/07/06 04:30:18;;;;;;;0.30;0.30;;;14.20;99.90;;;;;;4999470;28;20524;-66
2022/07/06 04:32:46;;;;;;;0.50;0.50;;;14.20;99.90;;;;;;5015607;28;20602;-67
2022/07/06 04:35:13;;;;;;;0.52;0.52;;;14.30;99.90;;;;;;5010870;28;20467;-65
2022/07/06 04:37:40;;;;;;;0.50;0.50;;;14.20;99.90;;;;;;5013476;28;20429;-66
2022/07/06 04:40:07;;;;;;;0.30;0.30;;;14.40;99.90;;;;;;5005913;28;20439;-65
2022/07/06 04:42:33;;;;;;;0.30;0.30;;;14.40;99.90;;;;;;5016623;28;20426;-66
2022/07/06 04:45:00;;;;;;;0.40;0.40;;;14.50;99.90;;;;;;5006686;28;20494;-66
2022/07/06 04:47:29;;;;;;;0.45;0.45;;;14.70;99.90;;;;;;5007125;28;20443;-67
2022/07/06 04:49:56;;;;;;;0.50;0.50;;;15.20;99.90;;;;;;5005752;28;20433;-66
2022/07/06 04:52:27;;;;;;;0.30;0.30;;;15.70;99.90;;;;;;5005554;28;20440;-66
2022/07/06 04:54:56;;;;;;;0.60;0.60;;;16.30;99.90;;;;;;5008660;28;20991;-67
2022/07/06 04:57:25;;;;;;;0.40;0.40;;;16.70;99.90;;;;;;5019518;28;20428;-64
2022/07/06 04:59:52;;;;;;;0.50;0.50;;;17.00;99.90;;;;;;5002796;28;20485;-66
2022/07/06 05:02:19;;;;;;;0.50;0.50;;;17.10;99.90;;;;;;5009513;28;20465;-64
2022/07/06 05:04:49;;;;;;;0.50;0.50;;;17.20;99.90;;;;;;5013553;28;20547;-68
2022/07/06 05:07:15;;;;;;;0.30;0.30;;;17.30;99.90;;;;;;5012832;28;20431;-65
2022/07/06 05:09:45;;;;;;;0.38;0.38;;;17.40;99.90;;;;;;5017431;28;20441;-65
2022/07/06 05:12:23;;;;;;;0.32;0.32;;;17.70;99.90;;;;;;5020144;28;20539;-65
2022/07/06 05:14:50;;;;;;;0.30;0.30;;;18.20;99.90;;;;;;5013882;28;20436;-64
2022/07/06 05:17:17;;;;;;;0.40;0.40;;;18.30;99.90;;;;;;5014403;28;20436;-64
2022/07/06 05:19:44;;;;;;;0.40;0.40;;;18.40;99.90;;;;;;5013450;28;20428;-64
2022/07/06 05:22:10;;;;;;;0.50;0.50;;;18.60;99.90;;;;;;5017695;28;20443;-65
2022/07/06 05:24:37;;;;;;;0.50;0.50;;;18.50;99.90;;;;;;5009551;28;20432;-64
2022/07/06 05:27:04;;;;;;;0.38;0.38;;;18.40;99.90;;;;;;5015460;28;20471;-63
2022/07/06 05:29:31;;;;;;;0.50;0.50;;;18.30;99.90;;;;;;5001780;28;20437;-65
2022/07/06 05:31:58;;;;;;;0.30;0.30;;;18.30;99.90;;;;;;5018139;28;20925;-64
2022/07/06 05:34:27;;;;;;;0.40;0.40;;;17.80;99.90;;;;;;5009391;28;20797;-66
2022/07/06 05:36:54;;;;;;;0.40;0.40;;;17.50;99.90;;;;;;5014318;28;20482;-65
2022/07/06 05:39:23;;;;;;;0.32;0.32;;;17.10;99.90;;;;;;5008732;28;20431;-65
2022/07/06 05:41:50;;;;;;;0.50;0.50;;;16.70;99.90;;;;;;5020837;28;20467;-64
2022/07/06 05:44:17;;;;;;;0.60;0.60;;;16.40;99.90;;;;;;5012704;28;20492;-65
2022/07/06 05:46:44;;;;;;;1.25;0.50;;;16.30;99.90;;;;;;5004654;28;20436;-64
2022/07/06 05:51:56;;;;;;;0.40;0.40;;;16.20;99.90;;;;;;5006518;28;20476;-65
2022/07/06 05:54:23;;;;;;;0.50;0.50;;;16.20;99.90;;;;;;5006809;28;20436;-65
2022/07/06 05:56:49;;;;;;;0.40;0.40;;;16.40;99.90;;;;;;5010277;28;20436;-65
2022/07/06 05:59:16;;;;;;;0.63;0.63;;;16.60;99.90;;;;;;5007516;28;20487;-65
2022/07/06 06:01:45;;;;;;;0.45;0.45;;;16.70;99.90;;;;;;5017311;28;20493;-65
2022/07/06 06:04:12;;;;;;;0.50;0.50;;;16.80;99.90;;;;;;5000144;28;21006;-65
2022/07/06 06:06:42;;;;;;;0.40;0.40;;;17.00;99.90;;;;;;5004835;28;20483;-65
2022/07/06 06:09:09;;;;;;;1.13;0.43;;;17.10;99.90;;;;;;5002082;28;20443;-66
2022/07/06 06:11:36;;;;;;;0.40;0.40;;;17.20;99.90;;;;;;5015180;28;20423;-66
2022/07/06 06:14:03;;;;;;;0.40;0.40;;;17.30;99.90;;;;;;4988102;28;20435;-66
2022/07/06 06:16:30;;;;;;;0.50;0.50;;;17.60;99.90;;;;;;5007434;28;20487;-65
2022/07/06 06:18:57;;;;;;;0.63;0.63;;;17.80;99.90;;;;;;5001214;28;20432;-66
2022/07/06 06:21:24;;;;;;;0.50;0.50;;;18.20;99.90;;;;;;5003806;28;20432;-63
2022/07/06 06:23:50;;;;;;;0.50;0.50;;;18.60;99.90;;;;;;4996429;28;20429;-65
2022/07/06 06:26:17;;;;;;;0.50;0.50;;;18.70;99.90;;;;;;5008113;28;20455;-65
2022/07/06 06:28:45;;;;;;;0.50;0.50;;;19.40;99.90;;;;;;4995350;28;20482;-65
2022/07/06 06:31:11;;;;;;;0.60;0.60;;;20.10;99.90;;;;;;5006848;28;20849;-63
2022/07/06 06:33:44;;;;;;;0.40;0.40;;;20.70;99.90;;;;;;5000693;28;20428;-65
2022/07/06 06:36:12;;;;;;;0.47;0.47;;;20.70;99.90;;;;;;4998802;28;20437;-65
2022/07/06 06:38:39;;;;;;;0.50;0.50;;;20.50;99.90;;;;;;4992990;28;20433;-65
2022/07/06 06:41:05;;;;;;;0.40;0.40;;;20.20;99.90;;;;;;5001605;28;21232;-66
2022/07/06 06:43:32;;;;;;;0.50;0.50;;;19.90;99.90;;;;;;5008232;28;20431;-64
2022/07/06 06:45:59;;;;;;;0.45;0.45;;;19.80;99.90;;;;;;5014181;28;20481;-66
2022/07/06 06:48:26;;;;;;;0.60;0.60;;;19.60;99.90;;;;;;4999053;28;20448;-64
2022/07/06 06:50:53;;;;;;;0.90;0.50;;;19.50;99.90;;;;;;4995123;28;20443;-65
2022/07/06 06:53:20;;;;;;;0.57;0.57;;;19.30;99.90;;;;;;5004543;28;20460;-65
2022/07/06 06:55:47;;;;;;;0.40;0.40;;;19.60;99.90;;;;;;5003895;28;20435;-65
2022/07/06 06:58:13;;;;;;;0.70;0.70;;;20.10;99.90;;;;;;5005729;28;20851;-66
2022/07/06 07:00:40;;;;;;;0.50;0.50;;;20.50;99.90;;;;;;5004263;28;20430;-63
2022/07/06 07:03:07;;;;;;;0.35;0.35;;;20.20;99.90;;;;;;5000590;28;20447;-65
2022/07/06 07:05:33;;;;;;;0.40;0.40;;;19.90;99.90;;;;;;5009874;28;20438;-65
2022/07/06 07:08:00;;;;;;;0.40;0.40;;;19.80;99.90;;;;;;4998941;28;20441;-65
2022/07/06 07:10:31;;;;;;;0.53;0.53;;;19.90;99.90;;;;;;5001579;28;20433;-62
2022/07/06 07:12:58;;;;;;;0.40;0.40;;;20.10;99.90;;;;;;4996997;28;20806;-63
2022/07/06 07:15:24;;;;;;;0.60;0.50;;;20.50;99.90;;;;;;4998455;28;20437;-63
2022/07/06 07:17:51;;;;;;;0.50;0.50;;;21.40;99.90;;;;;;5000976;28;20489;-64
2022/07/06 07:20:18;;;;;;;0.60;0.60;;;21.90;99.50;;;;;;5008485;28;20467;-64
2022/07/06 07:22:45;;;;;;;0.50;0.50;;;22.50;99.20;;;;;;5004942;28;20459;-63
2022/07/06 07:25:12;;;;;;;0.40;0.40;;;22.50;98.60;;;;;;4998626;28;20897;-64
2022/07/06 07:27:39;;;;;;;0.37;0.37;;;22.20;98.90;;;;;;5001930;28;20498;-64
2022/07/06 07:30:06;;;;;;;0.60;0.60;;;22.50;99.10;;;;;;5002024;28;20429;-64
2022/07/06 07:32:33;;;;;;;0.50;0.50;;;23.00;98.20;;;;;;5020058;28;20452;-64
2022/07/06 07:35:01;;;;;;;0.50;0.50;;;23.00;97.50;;;;;;5009018;28;20515;-64
2022/07/06 07:37:27;;;;;;;0.40;0.40;;;22.80;97.90;;;;;;5008999;28;20434;-65
2022/07/06 07:39:54;;;;;;;0.50;0.50;;;23.00;97.80;;;;;;5007750;28;20460;-64
2022/07/06 07:42:21;;;;;;;0.30;0.30;;;22.90;97.60;;;;;;5004606;28;20781;-64
2022/07/06 07:44:48;;;;;;;0.50;0.50;;;22.90;97.20;;;;;;5007214;28;20436;-64
2022/07/06 07:47:14;;;;;;;0.40;0.40;;;22.60;97.10;;;;;;5019364;28;20948;-64
2022/07/06 07:49:41;;;;;;;0.40;0.40;;;21.80;97.60;;;;;;5008271;28;20917;-64
2022/07/06 07:52:08;;;;;;;0.50;0.50;;;21.30;97.90;;;;;;5005882;28;20511;-64
2022/07/06 07:54:37;;;;;;;0.40;0.40;;;21.40;98.20;;;;;;5011657;28;20797;-64
2022/07/06 07:57:12;;;;;;;0.60;0.60;;;21.60;97.80;;;;;;4999477;28;20460;-64
2022/07/06 07:59:42;;;;;;;0.50;0.40;;;21.60;97.50;;;;;;5014788;28;20544;-64
2022/07/06 08:02:15;;;;;;;0.60;0.60;;;21.40;97.90;;;;;;5006511;28;20515;-64
2022/07/06 08:04:42;;;;;;;0.50;0.50;;;21.20;98.10;;;;;;5012536;28;20448;-64
2022/07/06 08:07:09;;;;;;;0.60;0.60;;;21.20;98.40;;;;;;5004221;28;20904;-64
2022/07/06 08:09:35;;;;;;;0.40;0.40;;;21.20;97.90;;;;;;5014316;28;20440;-63
2022/07/06 08:12:02;;;;;;;1.30;0.43;;;21.30;98.10;;;;;;5006803;28;20433;-65
2022/07/06 08:14:29;;;;;;;0.30;0.30;;;21.20;97.80;;;;;;5003324;28;21064;-64
2022/07/06 08:16:59;;;;;;;0.43;0.43;;;21.40;97.90;;;;;;5005856;28;20431;-64
2022/07/06 08:19:26;;;;;;;0.32;0.32;;;21.70;97.40;;;;;;5004444;28;20428;-64
2022/07/06 08:21:52;;;;;;;0.55;0.55;;;22.40;97.30;;;;;;5016277;28;20451;-64
2022/07/06 08:24:19;;;;;;;0.30;0.30;;;22.80;96.00;;;;;;5023997;28;20445;-64
2022/07/06 08:26:46;;;;;;;0.40;0.40;;;22.60;96.20;;;;;;5012958;28;20438;-64
2022/07/06 08:29:13;;;;;;;0.50;0.50;;;22.70;96.10;;;;;;5009112;28;20432;-64
2022/07/06 08:31:40;;;;;;;0.30;0.30;;;23.30;96.80;;;;;;5009495;28;20494;-64
2022/07/06 08:34:26;;;;;;;0.40;0.40;;;23.70;95.60;;;;;;5009967;28;20442;-65
2022/07/06 08:36:59;;;;;;;0.28;0.28;;;23.80;95.00;;;;;;5007219;28;20519;-62
2022/07/06 08:39:26;;;;;;;0.40;0.40;;;24.00;94.90;;;;;;5011110;28;20511;-63
2022/07/06 08:41:56;;;;;;;0.30;0.30;;;23.70;94.30;;;;;;5007983;28;20464;-64
2022/07/06 08:44:24;;;;;;;0.40;0.40;;;23.30;94.40;;;;;;5021686;28;20454;-64
2022/07/06 08:46:54;;;;;;;0.98;0.40;;;22.90;95.00;;;;;;5011136;28;20538;-64
2022/07/06 08:49:21;;;;;;;0.40;0.40;;;22.50;95.80;;;;;;5012247;28;20892;-64
2022/07/06 08:51:48;;;;;;;0.40;0.40;;;22.80;96.30;;;;;;5009760;28;20443;-63
2022/07/06 08:54:15;;;;;;;0.40;0.40;;;23.70;95.00;;;;;;5016707;28;20514;-64
2022/07/06 08:56:42;;;;;;;0.50;0.50;;;24.60;94.70;;;;;;5012624;28;20428;-63
2022/07/06 08:59:17;;;;;;;0.43;0.43;;;25.70;93.50;;;;;;5012041;28;20768;-62
2022/07/06 09:01:46;;;;;;;0.40;0.40;;;25.70;93.00;;;;;;5019066;28;20432;-64
2022/07/06 09:04:16;;;;;;;0.30;0.30;;;25.70;92.90;;;;;;5012251;28;20443;-64
2022/07/06 09:06:46;;;;;;;0.43;0.43;;;25.60;92.20;;;;;;5012780;28;20432;-64
2022/07/06 09:09:22;;;;;;;0.40;0.30;;;25.60;93.00;;;;;;5008912;28;20498;-65
2022/07/06 09:11:49;;;;;;;0.55;0.55;;;25.70;91.70;;;;;;5007425;28;20487;-64
2022/07/06 09:14:19;;;;;;;0.30;0.30;;;26.00;91.60;;;;;;5018980;28;20427;-63
2022/07/06 09:16:51;;;;;;;0.60;0.40;;;26.20;91.90;;;;;;5009289;28;20445;-63
2022/07/06 09:19:18;;;;;;;0.40;0.40;;;26.30;91.00;;;;;;5010437;28;20433;-61
2022/07/06 09:21:44;;;;;;;0.50;0.50;;;26.40;90.90;;;;;;5010189;28;20768;-63
2022/07/06 09:24:12;;;;;;;0.50;0.50;;;26.10;90.30;;;;;;4993996;28;20438;-61
2022/07/06 09:26:40;;;;;;;0.60;0.40;;;25.90;90.30;;;;;;5004059;28;20460;-62
2022/07/06 09:29:07;;;;;;;0.35;0.35;;;25.80;90.90;;;;;;5008343;28;20795;-63
2022/07/06 09:31:34;;;;;;;0.30;0.30;;;25.90;90.50;;;;;;5009076;28;20511;-63
2022/07/06 09:34:07;;;;;;;0.30;0.30;;;25.40;90.30;;;;;;5008350;28;20436;-64
2022/07/06 09:36:45;;;;;;;0.20;0.20;;;24.80;91.20;;;;;;5009894;28;20440;-63
2022/07/06 09:39:26;;;;;;;0.30;0.30;;;24.80;91.50;;;;;;5004223;28;20437;-63
2022/07/06 09:42:00;;;;;;;0.30;0.30;;;25.20;91.30;;;;;;5010632;28;20517;-63
2022/07/06 09:44:31;;;;;;;0.30;0.30;;;25.50;90.00;;;;;;5006575;28;20518;-64
2022/07/06 09:47:00;;;;;;;0.30;0.30;;;25.70;90.00;;;;;;5009050;28;20436;-64
2022/07/06 09:49:27;;;;;;;0.37;0.37;;;25.90;89.40;;;;;;5004161;28;20942;-63
2022/07/06 09:51:59;;;;;;;0.30;0.30;;;25.90;89.70;;;;;;5009252;28;20428;-63
2022/07/06 09:54:26;;;;;;;0.30;0.30;;;25.80;89.40;;;;;;5009642;28;20515;-63
2022/07/06 09:56:54;;;;;;;0.50;0.50;;;25.80;89.70;;;;;;5004364;28;20438;-63
2022/07/06 09:59:26;;;;;;;0.30;0.30;;;26.20;89.00;;;;;;5006135;28;20433;-63
2022/07/06 10:01:55;;;;;;;0.30;0.30;;;26.70;89.30;;;;;;5010542;28;20464;-63
2022/07/06 10:04:23;;;;;;;0.40;0.40;;;27.00;88.60;;;;;;5004686;28;20469;-64
2022/07/06 10:06:51;;;;;;;0.38;0.38;;;26.70;85.70;;;;;;5008105;28;20988;-63
2022/07/06 10:09:20;;;;;;;0.30;0.30;;;26.40;86.70;;;;;;5009849;28;20569;-64
2022/07/06 10:11:58;;;;;;;0.40;0.40;;;26.30;86.80;;;;;;5004826;28;20432;-67
2022/07/06 10:14:30;;;;;;;0.30;0.30;;;26.50;86.20;;;;;;5005216;28;20438;-63
2022/07/06 10:16:59;;;;;;;0.20;0.20;;;26.10;87.50;;;;;;5004872;28;20992;-64
2022/07/06 10:19:27;;;;;;;0.30;0.30;;;26.30;87.50;;;;;;5007609;28;20844;-64
2022/07/06 10:21:56;;;;;;;0.30;0.30;;;26.30;86.80;;;;;;5009953;28;20479;-63
2022/07/06 10:24:24;;;;;;;0.30;0.30;;;26.30;87.30;;;;;;5008288;28;20432;-65
2022/07/06 10:26:52;;;;;;;1.42;0.38;;;26.20;87.20;;;;;;5001557;28;20828;-65
2022/07/06 10:29:20;;;;;;;0.25;0.25;;;26.10;87.30;;;;;;5010092;28;20432;-62
2022/07/06 10:31:48;;;;;;;0.30;0.30;;;25.80;86.20;;;;;;5008617;28;20436;-65
2022/07/06 10:34:18;;;;;;;0.40;0.40;;;25.40;85.60;;;;;;5006829;28;20525;-63
2022/07/06 10:36:50;;;;;;;0.40;0.40;;;25.30;87.70;;;;;;5008113;28;20475;-65
2022/07/06 10:42:51;;;;;;;0.47;0.47;;;26.00;86.50;;;;;;5010492;28;20433;-64
2022/07/06 10:45:27;;;;;;;0.40;0.40;;;26.20;86.30;;;;;;5021929;28;20463;-63
2022/07/06 10:48:12;;;;;;;0.40;0.40;;;26.30;85.10;;;;;;5009498;28;20439;-63
2022/07/06 10:50:55;;;;;;;0.40;0.40;;;26.20;89.10;;;;;;5017747;28;20892;-65
2022/07/06 10:53:26;;;;;;;0.40;0.40;;;26.50;86.30;;;;;;5018684;28;21017;-62
2022/07/06 10:55:55;;;;;;;0.40;0.40;;;26.60;86.00;;;;;;5009374;28;20432;-66
2022/07/06 10:58:53;;;;;;;0.50;0.50;;;26.80;85.10;;;;;;5019641;28;20431;-63
2022/07/06 11:01:21;;;;;;;0.55;0.55;;;26.50;85.70;;;;;;5007361;28;20443;-64
2022/07/06 11:03:50;;;;;;;0.47;0.47;;;26.40;85.90;;;;;;5016718;28;20431;-65
2022/07/06 11:06:22;;;;;;;0.50;0.50;;;26.50;85.70;;;;;;4999791;28;20440;-64
2022/07/06 11:08:53;;;;;;;0.82;0.60;;;26.20;85.70;;;;;;5025429;28;20432;-62
2022/07/06 11:11:23;;;;;;;0.43;0.43;;;25.90;84.40;;;;;;5007624;28;20789;-64
2022/07/06 11:14:14;;;;;;;0.50;0.50;;;25.80;86.30;;;;;;5018028;28;20429;-63
2022/07/06 11:16:46;;;;;;;0.50;0.50;;;25.80;85.10;;;;;;5002218;28;20465;-65
2022/07/06 11:19:16;;;;;;;0.50;0.50;;;25.50;86.70;;;;;;5017523;28;20429;-65
2022/07/06 11:21:56;;;;;;;0.43;0.43;;;25.50;85.60;;;;;;5004159;28;20450;-64
2022/07/06 11:24:28;;;;;;;0.70;0.70;;;25.20;85.90;;;;;;5007379;28;20958;-65
2022/07/06 11:26:57;;;;;;;0.40;0.40;;;25.20;86.20;;;;;;5009849;28;20511;-65
2022/07/06 11:29:28;;;;;;;0.50;0.50;;;25.30;85.70;;;;;;5017980;28;20437;-66
2022/07/06 11:31:58;;;;;;;0.60;0.60;;;25.60;86.40;;;;;;5007633;28;20431;-64
2022/07/06 11:34:27;;;;;;;0.40;0.40;;;25.80;86.90;;;;;;5020169;28;20509;-63
2022/07/06 11:37:00;;;;;;;0.30;0.30;;;25.50;85.20;;;;;;5016033;28;20517;-66
2022/07/06 11:39:31;;;;;;;0.38;0.38;;;25.00;84.10;;;;;;4989393;28;20513;-63
2022/07/06 11:42:00;;;;;;;0.30;0.30;;;25.00;84.90;;;;;;5009462;28;20445;-65
2022/07/06 11:44:27;;;;;;;0.30;0.30;;;25.10;85.60;;;;;;5007546;28;20476;-64
2022/07/06 11:47:00;;;;;;;0.40;0.40;;;25.20;85.10;;;;;;5009141;28;20451;-64
2022/07/06 11:49:27;;;;;;;0.35;0.35;;;25.30;84.60;;;;;;4991526;28;20445;-65
2022/07/06 11:51:54;;;;;;;0.35;0.35;;;25.10;85.30;;;;;;5007372;28;20530;-63
2022/07/06 11:54:28;;;;;;;0.50;0.50;;;24.90;86.60;;;;;;5012883;28;20462;-65
2022/07/06 11:56:59;;;;;;;0.30;0.30;;;25.20;85.40;;;;;;5017997;28;20479;-62
2022/07/06 11:59:27;;;;;;;0.20;0.20;;;25.30;85.30;;;;;;5007102;28;20436;-63
2022/07/06 12:02:06;;;;;;;0.30;0.30;;;25.10;86.10;;;;;;5009052;28;20923;-67
2022/07/06 12:04:35;;;;;;;0.30;0.30;;;25.20;84.90;;;;;;5011229;28;20439;-67
2022/07/06 12:07:05;;;;;;;0.30;0.30;;;25.40;85.10;;;;;;5011217;28;20433;-66
2022/07/06 12:09:34;;;;;;;0.47;0.47;;;25.50;84.20;;;;;;5014536;28;20927;-66
2022/07/06 12:12:02;;;;;;;0.32;0.32;;;25.80;84.60;;;;;;5009762;28;20523;-69
2022/07/06 12:14:31;;;;;;;0.20;0.20;;;26.00;82.90;;;;;;5011959;28;20513;-65
2022/07/06 12:17:09;;;;;;;0.30;0.30;;;26.10;83.00;;;;;;5013323;28;20514;-66
2022/07/06 12:19:36;;;;;;;0.30;0.30;;;26.60;84.10;;;;;;5006675;28;20431;-66
2022/07/06 12:22:04;;;;;;;0.38;0.38;;;26.70;85.00;;;;;;5015894;28;20453;-65
2022/07/06 12:24:33;;;;;;;0.30;0.30;;;27.00;83.60;;;;;;5006153;28;20436;-66
2022/07/06 12:27:17;;;;;;;0.40;0.40;;;26.90;85.20;;;;;;5000303;28;20441;-66
2022/07/06 12:29:45;;;;;;;0.40;0.40;;;27.30;84.00;;;;;;5003032;28;20867;-66
2022/07/06 12:32:26;;;;;;;0.40;0.40;;;27.50;85.80;;;;;;5010600;28;20436;-65
2022/07/06 12:35:07;;;;;;;0.28;0.28;;;27.00;84.20;;;;;;5009160;28;21034;-66
2022/07/06 12:37:37;;;;;;;0.40;0.40;;;26.40;85.20;;;;;;5011556;28;20433;-68
2022/07/06 12:40:14;;;;;;;0.40;0.40;;;26.40;86.10;;;;;;5004524;28;20816;-67
2022/07/06 12:42:47;;;;;;;0.40;0.40;;;26.50;84.70;;;;;;5006256;28;20432;-67
2022/07/06 12:45:14;;;;;;;0.35;0.35;;;26.80;85.50;;;;;;5009090;28;20804;-65
2022/07/06 12:47:56;;;;;;;0.40;0.40;;;27.00;83.00;;;;;;5012337;28;20532;-68
2022/07/06 12:50:32;;;;;;;0.30;0.30;;;26.80;84.10;;;;;;5014267;28;20443;-67
2022/07/06 12:53:00;;;;;;;0.63;0.40;;;26.80;83.50;;;;;;5006201;28;20441;-66
2022/07/06 12:55:28;;;;;;;0.40;0.40;;;26.70;83.20;;;;;;5016293;28;20460;-65
2022/07/06 12:57:56;;;;;;;0.40;0.40;;;26.80;84.90;;;;;;5005047;28;20452;-67
2022/07/06 13:00:24;;;;;;;0.40;0.40;;;26.90;85.70;;;;;;5012679;28;20425;-65
2022/07/06 13:02:53;;;;;;;0.50;0.50;;;27.00;83.10;;;;;;5005232;28;20542;-67
2022/07/06 13:05:38;;;;;;;0.30;0.30;;;27.50;83.30;;;;;;4992607;28;20512;-67